Terminal Aerodrome Forecast
Issued by NWS

Home | Current Version | Previous Version | Text Only | Print | Product List | Glossary On
Versions: 1 2 3 4 5 6 7 8 9 10 11 12 13
000
FTUS45 KRIW 281100
TAFWRL
TAF
KWRL 281123Z 2812/2912 VRB03KT P6SM SKC
     FM290200 11006KT P6SM FEW090
     FM290700 VRB04KT P6SM SKC=

USA.gov is the U.S. government's official web portal to all federal, state and local government web resources and services.